sensor_id;sensor_type;location;lat;lon;timestamp;temperature;humidity
18690;DHT22;9782;52.930;15.562;2022-09-28T00:00:19;9.40;99.90
18690;DHT22;9782;52.930;15.562;2022-09-28T00:02:47;9.40;99.90
18690;DHT22;9782;52.930;15.562;2022-09-28T00:05:15;9.40;1.00
18690;DHT22;9782;52.930;15.562;2022-09-28T00:07:43;9.40;99.90
18690;DHT22;9782;52.930;15.562;2022-09-28T00:10:11;9.40;99.90
18690;DHT22;9782;52.930;15.562;2022-09-28T00:12:38;9.40;1.00
18690;DHT22;9782;52.930;15.562;2022-09-28T00:15:06;9.40;1.00
18690;DHT22;9782;52.930;15.562;2022-09-28T00:17:33;9.40;1.00
18690;DHT22;9782;52.930;15.562;2022-09-28T00:20:02;9.40;99.90
18690;DHT22;9782;52.930;15.562;2022-09-28T00:22:30;9.30;1.00
18690;DHT22;9782;52.930;15.562;2022-09-28T00:24:57;9.30;99.90
18690;DHT22;9782;52.930;15.562;2022-09-28T00:27:24;9.30;99.90
18690;DHT22;9782;52.930;15.562;2022-09-28T00:29:51;9.20;99.90
18690;DHT22;9782;52.930;15.562;2022-09-28T00:32:19;9.10;39.80
18690;DHT22;9782;52.930;15.562;2022-09-28T00:34:49;9.10;1.00
18690;DHT22;9782;52.930;15.562;2022-09-28T00:37:18;9.00;1.00
18690;DHT22;9782;52.930;15.562;2022-09-28T00:39:47;8.90;1.00
18690;DHT22;9782;52.930;15.562;2022-09-28T00:42:16;8.90;1.00
18690;DHT22;9782;52.930;15.562;2022-09-28T00:44:47;8.70;1.00
18690;DHT22;9782;52.930;15.562;2022-09-28T00:50:07;8.60;1.00
18690;DHT22;9782;52.930;15.562;2022-09-28T00:52:41;8.50;1.00
18690;DHT22;9782;52.930;15.562;2022-09-28T00:55:09;8.50;1.00
18690;DHT22;9782;52.930;15.562;2022-09-28T00:57:40;8.40;1.00
18690;DHT22;9782;52.930;15.562;2022-09-28T01:00:09;8.30;1.00
18690;DHT22;9782;52.930;15.562;2022-09-28T01:02:36;8.30;99.90
18690;DHT22;9782;52.930;15.562;2022-09-28T01:05:03;8.20;32.10
18690;DHT22;9782;52.930;15.562;2022-09-28T01:07:30;8.20;98.70
18690;DHT22;9782;52.930;15.562;2022-09-28T01:09:59;8.20;99.90
18690;DHT22;9782;52.930;15.562;2022-09-28T01:12:26;8.20;99.90
18690;DHT22;9782;52.930;15.562;2022-09-28T01:14:54;8.20;1.00
18690;DHT22;9782;52.930;15.562;2022-09-28T01:17:25;8.20;99.90
18690;DHT22;9782;52.930;15.562;2022-09-28T01:20:33;8.10;99.90
18690;DHT22;9782;52.930;15.562;2022-09-28T01:23:43;8.10;99.90
18690;DHT22;9782;52.930;15.562;2022-09-28T01:26:33;8.00;1.00
18690;DHT22;9782;52.930;15.562;2022-09-28T01:29:14;8.00;1.00
18690;DHT22;9782;52.930;15.562;2022-09-28T01:31:46;7.90;1.00
18690;DHT22;9782;52.930;15.562;2022-09-28T01:34:17;7.80;99.90
18690;DHT22;9782;52.930;15.562;2022-09-28T01:36:49;7.80;99.90
18690;DHT22;9782;52.930;15.562;2022-09-28T01:39:22;7.80;99.90
18690;DHT22;9782;52.930;15.562;2022-09-28T01:41:53;7.70;68.50
18690;DHT22;9782;52.930;15.562;2022-09-28T01:44:23;7.60;99.90
18690;DHT22;9782;52.930;15.562;2022-09-28T01:46:52;7.60;99.90
18690;DHT22;9782;52.930;15.562;2022-09-28T01:49:22;7.60;1.00
18690;DHT22;9782;52.930;15.562;2022-09-28T01:51:53;7.60;1.00
18690;DHT22;9782;52.930;15.562;2022-09-28T01:54:23;7.60;1.00
18690;DHT22;9782;52.930;15.562;2022-09-28T01:56:57;7.70;1.00
18690;DHT22;9782;52.930;15.562;2022-09-28T01:59:28;7.70;99.90
18690;DHT22;9782;52.930;15.562;2022-09-28T02:01:57;7.70;1.00
18690;DHT22;9782;52.930;15.562;2022-09-28T02:04:25;7.70;99.90
18690;DHT22;9782;52.930;15.562;2022-09-28T02:06:54;7.70;1.00
18690;DHT22;9782;52.930;15.562;2022-09-28T02:09:27;7.70;99.90
18690;DHT22;9782;52.930;15.562;2022-09-28T02:11:57;7.70;99.90
18690;DHT22;9782;52.930;15.562;2022-09-28T02:14:26;7.70;1.00
18690;DHT22;9782;52.930;15.562;2022-09-28T02:16:54;7.70;1.00
18690;DHT22;9782;52.930;15.562;2022-09-28T02:19:22;7.70;1.00
18690;DHT22;9782;52.930;15.562;2022-09-28T02:21:54;7.70;1.00
18690;DHT22;9782;52.930;15.562;2022-09-28T02:24:24;7.60;1.00
18690;DHT22;9782;52.930;15.562;2022-09-28T02:26:52;7.60;1.00
18690;DHT22;9782;52.930;15.562;2022-09-28T02:29:22;7.60;1.00
18690;DHT22;9782;52.930;15.562;2022-09-28T02:31:49;7.60;1.00
18690;DHT22;9782;52.930;15.562;2022-09-28T02:34:16;7.60;1.00
18690;DHT22;9782;52.930;15.562;2022-09-28T02:36:44;7.50;99.90
18690;DHT22;9782;52.930;15.562;2022-09-28T02:39:12;7.50;99.90
18690;DHT22;9782;52.930;15.562;2022-09-28T02:41:43;7.50;99.90
18690;DHT22;9782;52.930;15.562;2022-09-28T02:44:29;7.40;99.90
18690;DHT22;9782;52.930;15.562;2022-09-28T02:47:06;7.40;99.90
18690;DHT22;9782;52.930;15.562;2022-09-28T02:49:40;7.30;99.90
18690;DHT22;9782;52.930;15.562;2022-09-28T02:52:32;7.30;99.90
18690;DHT22;9782;52.930;15.562;2022-09-28T02:55:05;7.20;99.90
18690;DHT22;9782;52.930;15.562;2022-09-28T02:57:38;7.20;99.90
18690;DHT22;9782;52.930;15.562;2022-09-28T03:00:10;7.10;99.90
18690;DHT22;9782;52.930;15.562;2022-09-28T03:02:48;7.10;1.00
18690;DHT22;9782;52.930;15.562;2022-09-28T03:05:20;7.10;99.90
18690;DHT22;9782;52.930;15.562;2022-09-28T03:07:56;7.10;99.90
18690;DHT22;9782;52.930;15.562;2022-09-28T03:10:29;7.20;1.00
18690;DHT22;9782;52.930;15.562;2022-09-28T03:12:58;7.20;1.00
18690;DHT22;9782;52.930;15.562;2022-09-28T03:15:28;7.20;1.00
18690;DHT22;9782;52.930;15.562;2022-09-28T03:17:55;7.20;1.00
18690;DHT22;9782;52.930;15.562;2022-09-28T03:20:23;7.20;99.90
18690;DHT22;9782;52.930;15.562;2022-09-28T03:22:50;7.20;99.90
18690;DHT22;9782;52.930;15.562;2022-09-28T03:25:17;7.30;99.90
18690;DHT22;9782;52.930;15.562;2022-09-28T03:27:44;7.30;99.90
18690;DHT22;9782;52.930;15.562;2022-09-28T03:30:11;7.30;1.00
18690;DHT22;9782;52.930;15.562;2022-09-28T03:32:40;7.30;99.90
18690;DHT22;9782;52.930;15.562;2022-09-28T03:35:08;7.30;99.90
18690;DHT22;9782;52.930;15.562;2022-09-28T03:37:36;7.40;1.00
18690;DHT22;9782;52.930;15.562;2022-09-28T03:40:03;7.40;1.00
18690;DHT22;9782;52.930;15.562;2022-09-28T03:42:30;7.40;99.90
18690;DHT22;9782;52.930;15.562;2022-09-28T03:44:57;7.40;1.00
18690;DHT22;9782;52.930;15.562;2022-09-28T03:47:24;7.40;1.00
18690;DHT22;9782;52.930;15.562;2022-09-28T03:49:52;7.40;1.00
18690;DHT22;9782;52.930;15.562;2022-09-28T03:52:19;7.40;99.90
18690;DHT22;9782;52.930;15.562;2022-09-28T03:54:46;7.40;99.90
18690;DHT22;9782;52.930;15.562;2022-09-28T03:57:13;7.50;99.90
18690;DHT22;9782;52.930;15.562;2022-09-28T03:59:40;7.50;1.00
18690;DHT22;9782;52.930;15.562;2022-09-28T04:02:06;7.50;1.00
18690;DHT22;9782;52.930;15.562;2022-09-28T04:04:33;7.50;1.00
18690;DHT22;9782;52.930;15.562;2022-09-28T04:07:01;7.50;1.00
18690;DHT22;9782;52.930;15.562;2022-09-28T04:09:28;7.60;99.90
18690;DHT22;9782;52.930;15.562;2022-09-28T04:11:55;7.60;1.00
18690;DHT22;9782;52.930;15.562;2022-09-28T04:14:22;7.60;1.00
18690;DHT22;9782;52.930;15.562;2022-09-28T04:16:49;7.60;99.90
18690;DHT22;9782;52.930;15.562;2022-09-28T04:19:18;7.60;1.00
18690;DHT22;9782;52.930;15.562;2022-09-28T04:21:46;7.60;1.00
18690;DHT22;9782;52.930;15.562;2022-09-28T04:24:16;7.60;76.70
18690;DHT22;9782;52.930;15.562;2022-09-28T04:26:43;7.60;99.90
18690;DHT22;9782;52.930;15.562;2022-09-28T04:29:09;7.60;99.90
18690;DHT22;9782;52.930;15.562;2022-09-28T04:31:41;7.60;1.00
18690;DHT22;9782;52.930;15.562;2022-09-28T04:34:09;7.60;1.00
18690;DHT22;9782;52.930;15.562;2022-09-28T04:36:36;7.60;1.00
18690;DHT22;9782;52.930;15.562;2022-09-28T04:39:02;7.60;1.00
18690;DHT22;9782;52.930;15.562;2022-09-28T04:41:31;7.60;1.00
18690;DHT22;9782;52.930;15.562;2022-09-28T04:43:58;7.60;99.90
18690;DHT22;9782;52.930;15.562;2022-09-28T04:46:25;7.60;99.90
18690;DHT22;9782;52.930;15.562;2022-09-28T04:48:52;7.60;1.00
18690;DHT22;9782;52.930;15.562;2022-09-28T04:51:19;7.60;1.00
18690;DHT22;9782;52.930;15.562;2022-09-28T04:53:46;7.60;99.90
18690;DHT22;9782;52.930;15.562;2022-09-28T04:56:14;7.60;99.90
18690;DHT22;9782;52.930;15.562;2022-09-28T04:58:42;7.60;20.80
18690;DHT22;9782;52.930;15.562;2022-09-28T05:01:11;7.50;99.90
18690;DHT22;9782;52.930;15.562;2022-09-28T05:03:39;7.60;1.00
18690;DHT22;9782;52.930;15.562;2022-09-28T05:06:07;7.50;1.00
18690;DHT22;9782;52.930;15.562;2022-09-28T05:08:34;7.50;1.00
18690;DHT22;9782;52.930;15.562;2022-09-28T05:11:04;7.50;99.90
18690;DHT22;9782;52.930;15.562;2022-09-28T05:13:33;7.50;99.90
18690;DHT22;9782;52.930;15.562;2022-09-28T05:16:04;7.60;1.00
18690;DHT22;9782;52.930;15.562;2022-09-28T05:18:31;7.60;1.00
18690;DHT22;9782;52.930;15.562;2022-09-28T05:20:58;7.60;1.00
18690;DHT22;9782;52.930;15.562;2022-09-28T05:23:26;7.70;1.00
18690;DHT22;9782;52.930;15.562;2022-09-28T05:25:53;7.70;99.90
18690;DHT22;9782;52.930;15.562;2022-09-28T05:28:23;7.70;1.00
18690;DHT22;9782;52.930;15.562;2022-09-28T05:30:51;7.60;1.00
18690;DHT22;9782;52.930;15.562;2022-09-28T05:33:19;7.70;1.00
18690;DHT22;9782;52.930;15.562;2022-09-28T05:35:46;7.70;1.00
18690;DHT22;9782;52.930;15.562;2022-09-28T05:38:13;7.70;1.00
18690;DHT22;9782;52.930;15.562;2022-09-28T05:40:40;7.70;1.00
18690;DHT22;9782;52.930;15.562;2022-09-28T05:43:07;7.70;1.00
18690;DHT22;9782;52.930;15.562;2022-09-28T05:45:34;7.80;1.00
18690;DHT22;9782;52.930;15.562;2022-09-28T05:48:00;7.70;1.00
18690;DHT22;9782;52.930;15.562;2022-09-28T05:50:29;7.70;1.00
18690;DHT22;9782;52.930;15.562;2022-09-28T05:52:56;7.70;1.00
18690;DHT22;9782;52.930;15.562;2022-09-28T05:55:23;7.70;1.00
18690;DHT22;9782;52.930;15.562;2022-09-28T05:57:50;7.70;99.90
18690;DHT22;9782;52.930;15.562;2022-09-28T06:00:17;7.80;1.00
18690;DHT22;9782;52.930;15.562;2022-09-28T06:02:49;7.80;1.00
18690;DHT22;9782;52.930;15.562;2022-09-28T06:05:20;7.80;1.00
18690;DHT22;9782;52.930;15.562;2022-09-28T06:07:48;7.80;1.00
18690;DHT22;9782;52.930;15.562;2022-09-28T06:10:15;7.80;25.80
18690;DHT22;9782;52.930;15.562;2022-09-28T06:12:42;7.80;99.90
18690;DHT22;9782;52.930;15.562;2022-09-28T06:15:09;7.80;99.90
18690;DHT22;9782;52.930;15.562;2022-09-28T06:17:36;7.80;99.90
18690;DHT22;9782;52.930;15.562;2022-09-28T06:20:03;7.90;1.00
18690;DHT22;9782;52.930;15.562;2022-09-28T06:22:30;8.00;1.00
18690;DHT22;9782;52.930;15.562;2022-09-28T06:24:58;8.10;1.00
18690;DHT22;9782;52.930;15.562;2022-09-28T06:27:25;8.10;99.90
18690;DHT22;9782;52.930;15.562;2022-09-28T06:29:51;8.20;99.90
18690;DHT22;9782;52.930;15.562;2022-09-28T06:32:18;8.30;1.00
18690;DHT22;9782;52.930;15.562;2022-09-28T06:34:45;8.30;99.90
18690;DHT22;9782;52.930;15.562;2022-09-28T06:37:12;8.30;1.00
18690;DHT22;9782;52.930;15.562;2022-09-28T06:39:38;8.30;1.00
18690;DHT22;9782;52.930;15.562;2022-09-28T06:42:07;8.40;99.90
18690;DHT22;9782;52.930;15.562;2022-09-28T06:44:34;8.40;99.90
18690;DHT22;9782;52.930;15.562;2022-09-28T06:47:01;8.40;1.00
18690;DHT22;9782;52.930;15.562;2022-09-28T06:49:28;8.40;1.00
18690;DHT22;9782;52.930;15.562;2022-09-28T06:51:54;8.40;1.00
18690;DHT22;9782;52.930;15.562;2022-09-28T06:54:21;8.40;1.00
18690;DHT22;9782;52.930;15.562;2022-09-28T06:56:50;8.40;1.00
18690;DHT22;9782;52.930;15.562;2022-09-28T06:59:18;8.50;99.90
18690;DHT22;9782;52.930;15.562;2022-09-28T07:01:45;8.60;1.00
18690;DHT22;9782;52.930;15.562;2022-09-28T07:04:12;8.60;99.90
18690;DHT22;9782;52.930;15.562;2022-09-28T07:06:39;8.70;1.00
18690;DHT22;9782;52.930;15.562;2022-09-28T07:09:11;8.70;1.00
18690;DHT22;9782;52.930;15.562;2022-09-28T07:11:38;8.80;99.90
18690;DHT22;9782;52.930;15.562;2022-09-28T07:14:05;8.80;1.00
18690;DHT22;9782;52.930;15.562;2022-09-28T07:16:34;8.90;99.90
18690;DHT22;9782;52.930;15.562;2022-09-28T07:19:02;9.00;99.90
18690;DHT22;9782;52.930;15.562;2022-09-28T07:21:29;9.10;1.00
18690;DHT22;9782;52.930;15.562;2022-09-28T07:23:55;9.20;1.00
18690;DHT22;9782;52.930;15.562;2022-09-28T07:26:22;9.20;99.90
18690;DHT22;9782;52.930;15.562;2022-09-28T07:28:50;9.20;99.90
18690;DHT22;9782;52.930;15.562;2022-09-28T07:31:17;9.30;99.90
18690;DHT22;9782;52.930;15.562;2022-09-28T07:33:48;9.40;99.90
18690;DHT22;9782;52.930;15.562;2022-09-28T07:36:15;9.40;99.90
18690;DHT22;9782;52.930;15.562;2022-09-28T07:38:45;9.40;1.00
18690;DHT22;9782;52.930;15.562;2022-09-28T07:41:13;9.40;1.00
18690;DHT22;9782;52.930;15.562;2022-09-28T07:43:41;9.40;1.00
18690;DHT22;9782;52.930;15.562;2022-09-28T07:46:08;9.50;1.00
18690;DHT22;9782;52.930;15.562;2022-09-28T07:48:39;9.50;1.00
18690;DHT22;9782;52.930;15.562;2022-09-28T07:51:08;9.50;1.00
18690;DHT22;9782;52.930;15.562;2022-09-28T07:53:35;9.60;1.00
18690;DHT22;9782;52.930;15.562;2022-09-28T07:56:04;9.60;1.00
18690;DHT22;9782;52.930;15.562;2022-09-28T07:58:32;9.60;1.00
18690;DHT22;9782;52.930;15.562;2022-09-28T08:01:04;9.60;1.00
18690;DHT22;9782;52.930;15.562;2022-09-28T08:03:31;9.70;1.00
18690;DHT22;9782;52.930;15.562;2022-09-28T08:05:59;9.70;1.00
18690;DHT22;9782;52.930;15.562;2022-09-28T08:08:28;9.70;1.00
18690;DHT22;9782;52.930;15.562;2022-09-28T08:10:55;9.70;1.00
18690;DHT22;9782;52.930;15.562;2022-09-28T08:13:22;9.70;1.00
18690;DHT22;9782;52.930;15.562;2022-09-28T08:15:50;9.80;1.00
18690;DHT22;9782;52.930;15.562;2022-09-28T08:18:17;9.90;1.00
18690;DHT22;9782;52.930;15.562;2022-09-28T08:20:44;10.00;1.00
18690;DHT22;9782;52.930;15.562;2022-09-28T08:23:30;10.20;1.00
18690;DHT22;9782;52.930;15.562;2022-09-28T08:25:57;10.40;1.00
18690;DHT22;9782;52.930;15.562;2022-09-28T08:28:24;10.50;1.00
18690;DHT22;9782;52.930;15.562;2022-09-28T08:30:51;10.70;1.00
18690;DHT22;9782;52.930;15.562;2022-09-28T08:33:19;10.90;1.00
18690;DHT22;9782;52.930;15.562;2022-09-28T08:35:47;11.20;99.90
18690;DHT22;9782;52.930;15.562;2022-09-28T08:38:14;11.50;1.00
18690;DHT22;9782;52.930;15.562;2022-09-28T08:40:51;11.80;1.00
18690;DHT22;9782;52.930;15.562;2022-09-28T08:43:42;12.20;1.00
18690;DHT22;9782;52.930;15.562;2022-09-28T08:46:13;12.40;1.00
18690;DHT22;9782;52.930;15.562;2022-09-28T08:48:48;12.60;1.00
18690;DHT22;9782;52.930;15.562;2022-09-28T08:51:21;12.80;1.00
18690;DHT22;9782;52.930;15.562;2022-09-28T08:53:53;13.10;99.90
18690;DHT22;9782;52.930;15.562;2022-09-28T08:56:28;13.30;99.90
18690;DHT22;9782;52.930;15.562;2022-09-28T08:58:58;13.60;1.00
18690;DHT22;9782;52.930;15.562;2022-09-28T09:01:27;14.00;1.00
18690;DHT22;9782;52.930;15.562;2022-09-28T09:03:56;15.00;1.00
18690;DHT22;9782;52.930;15.562;2022-09-28T09:06:29;15.50;1.00
18690;DHT22;9782;52.930;15.562;2022-09-28T09:09:08;15.60;99.90
18690;DHT22;9782;52.930;15.562;2022-09-28T09:11:50;15.80;99.90
18690;DHT22;9782;52.930;15.562;2022-09-28T09:14:50;15.70;99.90
18690;DHT22;9782;52.930;15.562;2022-09-28T09:17:27;15.90;99.90
18690;DHT22;9782;52.930;15.562;2022-09-28T09:20:05;16.50;1.00
18690;DHT22;9782;52.930;15.562;2022-09-28T09:22:38;17.20;1.00
18690;DHT22;9782;52.930;15.562;2022-09-28T09:25:14;18.00;99.90
18690;DHT22;9782;52.930;15.562;2022-09-28T09:27:53;18.80;99.90
18690;DHT22;9782;52.930;15.562;2022-09-28T09:30:22;19.00;99.90
18690;DHT22;9782;52.930;15.562;2022-09-28T09:33:05;18.60;1.00
18690;DHT22;9782;52.930;15.562;2022-09-28T09:35:59;18.30;1.00
18690;DHT22;9782;52.930;15.562;2022-09-28T09:38:40;17.90;1.00
18690;DHT22;9782;52.930;15.562;2022-09-28T09:41:19;17.50;1.00
18690;DHT22;9782;52.930;15.562;2022-09-28T09:44:08;17.20;1.00
18690;DHT22;9782;52.930;15.562;2022-09-28T09:46:40;17.00;1.00
18690;DHT22;9782;52.930;15.562;2022-09-28T09:49:10;17.30;1.00
18690;DHT22;9782;52.930;15.562;2022-09-28T09:51:42;17.30;1.00
18690;DHT22;9782;52.930;15.562;2022-09-28T09:54:12;17.30;1.00
18690;DHT22;9782;52.930;15.562;2022-09-28T09:56:40;17.10;1.00
18690;DHT22;9782;52.930;15.562;2022-09-28T09:59:14;16.80;1.00
18690;DHT22;9782;52.930;15.562;2022-09-28T10:01:43;16.70;1.00
18690;DHT22;9782;52.930;15.562;2022-09-28T10:04:16;16.70;1.00
18690;DHT22;9782;52.930;15.562;2022-09-28T10:06:44;16.70;1.00
18690;DHT22;9782;52.930;15.562;2022-09-28T10:09:12;16.60;1.00
18690;DHT22;9782;52.930;15.562;2022-09-28T10:11:42;16.60;1.00
18690;DHT22;9782;52.930;15.562;2022-09-28T10:14:12;16.60;1.00
18690;DHT22;9782;52.930;15.562;2022-09-28T10:16:39;16.40;1.00
18690;DHT22;9782;52.930;15.562;2022-09-28T10:19:06;16.30;1.00
18690;DHT22;9782;52.930;15.562;2022-09-28T10:21:34;16.20;1.00
18690;DHT22;9782;52.930;15.562;2022-09-28T10:24:03;16.10;1.00
18690;DHT22;9782;52.930;15.562;2022-09-28T10:26:32;16.10;1.00
18690;DHT22;9782;52.930;15.562;2022-09-28T10:29:01;16.10;1.00
18690;DHT22;9782;52.930;15.562;2022-09-28T10:31:34;16.10;1.00
18690;DHT22;9782;52.930;15.562;2022-09-28T10:34:01;16.10;1.00
18690;DHT22;9782;52.930;15.562;2022-09-28T10:36:29;16.20;1.00
18690;DHT22;9782;52.930;15.562;2022-09-28T10:39:03;16.50;1.00
18690;DHT22;9782;52.930;15.562;2022-09-28T10:41:30;16.50;1.00
18690;DHT22;9782;52.930;15.562;2022-09-28T10:44:01;16.40;1.00
18690;DHT22;9782;52.930;15.562;2022-09-28T10:46:32;16.30;1.00
18690;DHT22;9782;52.930;15.562;2022-09-28T10:49:03;16.20;1.00
18690;DHT22;9782;52.930;15.562;2022-09-28T10:51:38;16.10;1.00
18690;DHT22;9782;52.930;15.562;2022-09-28T10:54:13;16.10;1.00
18690;DHT22;9782;52.930;15.562;2022-09-28T10:56:41;16.00;1.00
18690;DHT22;9782;52.930;15.562;2022-09-28T10:59:23;15.90;1.00
18690;DHT22;9782;52.930;15.562;2022-09-28T11:01:53;15.80;1.00
18690;DHT22;9782;52.930;15.562;2022-09-28T11:04:26;15.90;1.00
18690;DHT22;9782;52.930;15.562;2022-09-28T11:06:54;16.10;1.00
18690;DHT22;9782;52.930;15.562;2022-09-28T11:09:27;16.10;1.00
18690;DHT22;9782;52.930;15.562;2022-09-28T11:11:54;16.10;1.00
18690;DHT22;9782;52.930;15.562;2022-09-28T11:14:26;16.00;1.00
18690;DHT22;9782;52.930;15.562;2022-09-28T11:19:36;15.70;1.00
18690;DHT22;9782;52.930;15.562;2022-09-28T11:22:11;15.60;1.00
18690;DHT22;9782;52.930;15.562;2022-09-28T11:24:45;15.50;1.00
18690;DHT22;9782;52.930;15.562;2022-09-28T11:27:18;15.50;1.00
18690;DHT22;9782;52.930;15.562;2022-09-28T11:29:50;15.30;1.00
18690;DHT22;9782;52.930;15.562;2022-09-28T11:32:20;15.00;1.00
18690;DHT22;9782;52.930;15.562;2022-09-28T11:34:49;14.90;1.00
18690;DHT22;9782;52.930;15.562;2022-09-28T11:37:27;14.80;1.00
18690;DHT22;9782;52.930;15.562;2022-09-28T11:40:00;14.70;1.00
18690;DHT22;9782;52.930;15.562;2022-09-28T11:42:32;14.60;1.00
18690;DHT22;9782;52.930;15.562;2022-09-28T11:45:03;14.50;1.00
18690;DHT22;9782;52.930;15.562;2022-09-28T11:47:46;14.40;1.00
18690;DHT22;9782;52.930;15.562;2022-09-28T11:50:19;14.40;1.00
18690;DHT22;9782;52.930;15.562;2022-09-28T11:52:48;14.30;1.00
18690;DHT22;9782;52.930;15.562;2022-09-28T11:55:21;14.20;1.00
18690;DHT22;9782;52.930;15.562;2022-09-28T11:57:52;14.20;1.00
18690;DHT22;9782;52.930;15.562;2022-09-28T12:00:19;14.20;1.00
18690;DHT22;9782;52.930;15.562;2022-09-28T12:02:48;14.30;1.00
18690;DHT22;9782;52.930;15.562;2022-09-28T12:05:20;14.30;1.00
18690;DHT22;9782;52.930;15.562;2022-09-28T12:07:49;14.40;1.00
18690;DHT22;9782;52.930;15.562;2022-09-28T12:10:18;14.40;1.00
18690;DHT22;9782;52.930;15.562;2022-09-28T12:12:47;14.40;1.00
18690;DHT22;9782;52.930;15.562;2022-09-28T12:15:18;14.40;1.00
18690;DHT22;9782;52.930;15.562;2022-09-28T12:17:46;14.40;1.00
18690;DHT22;9782;52.930;15.562;2022-09-28T12:20:21;14.40;1.00
18690;DHT22;9782;52.930;15.562;2022-09-28T12:22:52;14.40;1.00
18690;DHT22;9782;52.930;15.562;2022-09-28T12:25:20;14.40;1.00
18690;DHT22;9782;52.930;15.562;2022-09-28T12:27:48;14.40;1.00
18690;DHT22;9782;52.930;15.562;2022-09-28T12:30:17;14.30;1.00
18690;DHT22;9782;52.930;15.562;2022-09-28T12:32:45;14.30;1.00
18690;DHT22;9782;52.930;15.562;2022-09-28T12:35:16;14.20;1.00
18690;DHT22;9782;52.930;15.562;2022-09-28T12:37:49;14.10;1.00
18690;DHT22;9782;52.930;15.562;2022-09-28T12:40:23;14.00;1.00
18690;DHT22;9782;52.930;15.562;2022-09-28T12:42:58;13.90;1.00
18690;DHT22;9782;52.930;15.562;2022-09-28T12:45:35;13.90;1.00
18690;DHT22;9782;52.930;15.562;2022-09-28T12:48:09;13.80;1.00
18690;DHT22;9782;52.930;15.562;2022-09-28T12:50:41;13.80;1.00
18690;DHT22;9782;52.930;15.562;2022-09-28T12:53:18;13.80;1.00
18690;DHT22;9782;52.930;15.562;2022-09-28T12:55:51;13.80;1.00
18690;DHT22;9782;52.930;15.562;2022-09-28T12:58:24;13.80;1.00
18690;DHT22;9782;52.930;15.562;2022-09-28T13:00:57;13.80;1.00
18690;DHT22;9782;52.930;15.562;2022-09-28T13:03:30;13.80;1.00
18690;DHT22;9782;52.930;15.562;2022-09-28T13:08:47;13.90;1.00
18690;DHT22;9782;52.930;15.562;2022-09-28T13:11:20;13.90;1.00
18690;DHT22;9782;52.930;15.562;2022-09-28T13:13:51;13.90;1.00
18690;DHT22;9782;52.930;15.562;2022-09-28T13:16:21;14.00;1.00
18690;DHT22;9782;52.930;15.562;2022-09-28T13:18:52;14.00;1.00
18690;DHT22;9782;52.930;15.562;2022-09-28T13:21:25;14.10;1.00
18690;DHT22;9782;52.930;15.562;2022-09-28T13:23:54;14.00;1.00
18690;DHT22;9782;52.930;15.562;2022-09-28T13:26:23;14.10;1.00
18690;DHT22;9782;52.930;15.562;2022-09-28T13:28:53;14.00;1.00
18690;DHT22;9782;52.930;15.562;2022-09-28T13:31:21;14.10;1.00
18690;DHT22;9782;52.930;15.562;2022-09-28T13:33:52;14.10;1.00
18690;DHT22;9782;52.930;15.562;2022-09-28T13:42:04;13.90;1.00
18690;DHT22;9782;52.930;15.562;2022-09-28T13:44:44;13.90;1.00
18690;DHT22;9782;52.930;15.562;2022-09-28T13:47:19;13.80;1.00
18690;DHT22;9782;52.930;15.562;2022-09-28T13:49:50;13.80;1.00
18690;DHT22;9782;52.930;15.562;2022-09-28T13:52:27;13.80;1.00
18690;DHT22;9782;52.930;15.562;2022-09-28T13:55:00;13.70;1.00
18690;DHT22;9782;52.930;15.562;2022-09-28T13:57:30;13.70;1.00
18690;DHT22;9782;52.930;15.562;2022-09-28T14:00:03;13.70;1.00
18690;DHT22;9782;52.930;15.562;2022-09-28T14:02:34;13.60;1.00
18690;DHT22;9782;52.930;15.562;2022-09-28T14:05:03;13.50;1.00
18690;DHT22;9782;52.930;15.562;2022-09-28T14:07:54;13.50;1.00
18690;DHT22;9782;52.930;15.562;2022-09-28T14:10:21;13.40;1.00
18690;DHT22;9782;52.930;15.562;2022-09-28T14:12:51;13.30;1.00
18690;DHT22;9782;52.930;15.562;2022-09-28T14:18:02;13.20;1.00
18690;DHT22;9782;52.930;15.562;2022-09-28T14:20:32;13.10;1.00
18690;DHT22;9782;52.930;15.562;2022-09-28T14:28:48;13.10;1.00
18690;DHT22;9782;52.930;15.562;2022-09-28T14:31:20;13.10;1.00
18690;DHT22;9782;52.930;15.562;2022-09-28T14:33:56;13.00;1.00
18690;DHT22;9782;52.930;15.562;2022-09-28T14:36:23;13.00;1.00
18690;DHT22;9782;52.930;15.562;2022-09-28T14:39:21;13.00;1.00
18690;DHT22;9782;52.930;15.562;2022-09-28T14:42:10;13.00;1.00
18690;DHT22;9782;52.930;15.562;2022-09-28T14:47:35;13.00;1.00
18690;DHT22;9782;52.930;15.562;2022-09-28T14:50:16;13.00;1.00
18690;DHT22;9782;52.930;15.562;2022-09-28T14:52:44;12.90;1.00
18690;DHT22;9782;52.930;15.562;2022-09-28T14:55:16;12.90;1.00
18690;DHT22;9782;52.930;15.562;2022-09-28T14:57:43;12.90;1.00
18690;DHT22;9782;52.930;15.562;2022-09-28T15:00:18;12.80;1.00
18690;DHT22;9782;52.930;15.562;2022-09-28T15:02:48;12.90;1.00
18690;DHT22;9782;52.930;15.562;2022-09-28T15:05:18;12.80;1.00
18690;DHT22;9782;52.930;15.562;2022-09-28T15:07:48;12.80;1.00
18690;DHT22;9782;52.930;15.562;2022-09-28T15:10:27;12.70;1.00
18690;DHT22;9782;52.930;15.562;2022-09-28T15:12:57;12.70;1.00
18690;DHT22;9782;52.930;15.562;2022-09-28T15:15:26;12.70;1.00
18690;DHT22;9782;52.930;15.562;2022-09-28T15:18:00;12.60;1.00
18690;DHT22;9782;52.930;15.562;2022-09-28T15:20:29;12.60;1.00
18690;DHT22;9782;52.930;15.562;2022-09-28T15:22:58;12.50;1.00
18690;DHT22;9782;52.930;15.562;2022-09-28T15:25:26;12.40;1.00
18690;DHT22;9782;52.930;15.562;2022-09-28T15:27:53;12.10;1.00
18690;DHT22;9782;52.930;15.562;2022-09-28T15:30:22;11.90;1.00
18690;DHT22;9782;52.930;15.562;2022-09-28T15:32:49;11.80;1.00
18690;DHT22;9782;52.930;15.562;2022-09-28T15:35:21;11.60;1.00
18690;DHT22;9782;52.930;15.562;2022-09-28T15:37:48;11.40;1.00
18690;DHT22;9782;52.930;15.562;2022-09-28T15:40:17;11.30;1.00
18690;DHT22;9782;52.930;15.562;2022-09-28T15:42:44;11.20;1.00
18690;DHT22;9782;52.930;15.562;2022-09-28T15:45:24;11.10;1.00
18690;DHT22;9782;52.930;15.562;2022-09-28T15:47:52;11.10;1.00
18690;DHT22;9782;52.930;15.562;2022-09-28T15:50:25;11.00;1.00
18690;DHT22;9782;52.930;15.562;2022-09-28T15:52:53;10.90;1.00
18690;DHT22;9782;52.930;15.562;2022-09-28T15:55:22;10.80;1.00
18690;DHT22;9782;52.930;15.562;2022-09-28T15:57:49;10.70;1.00
18690;DHT22;9782;52.930;15.562;2022-09-28T16:00:25;10.60;1.00
18690;DHT22;9782;52.930;15.562;2022-09-28T16:02:56;10.60;1.00
18690;DHT22;9782;52.930;15.562;2022-09-28T16:05:29;10.50;1.00
18690;DHT22;9782;52.930;15.562;2022-09-28T16:08:00;10.50;1.00
18690;DHT22;9782;52.930;15.562;2022-09-28T16:10:29;10.40;1.00
18690;DHT22;9782;52.930;15.562;2022-09-28T16:13:05;10.40;1.00
18690;DHT22;9782;52.930;15.562;2022-09-28T16:15:34;10.40;1.00
18690;DHT22;9782;52.930;15.562;2022-09-28T16:18:02;10.30;1.00
18690;DHT22;9782;52.930;15.562;2022-09-28T16:20:33;10.30;1.00
18690;DHT22;9782;52.930;15.562;2022-09-28T16:23:01;10.30;1.00
18690;DHT22;9782;52.930;15.562;2022-09-28T16:25:33;10.20;1.00
18690;DHT22;9782;52.930;15.562;2022-09-28T16:28:03;10.20;1.00
18690;DHT22;9782;52.930;15.562;2022-09-28T16:30:31;10.10;1.00
18690;DHT22;9782;52.930;15.562;2022-09-28T16:32:59;10.10;1.00
18690;DHT22;9782;52.930;15.562;2022-09-28T16:35:28;10.10;1.00